sensor_id;sensor_type;location;lat;lon;timestamp;temperature;humidity
25628;DHT22;40915;50.826;4.356;2023-03-05T00:01:51;6.20;99.90
25628;DHT22;40915;50.826;4.356;2023-03-05T00:04:16;6.20;99.90
25628;DHT22;40915;50.826;4.356;2023-03-05T00:06:42;6.30;99.90
25628;DHT22;40915;50.826;4.356;2023-03-05T00:09:08;6.20;99.90
25628;DHT22;40915;50.826;4.356;2023-03-05T00:11:34;6.30;99.90
25628;DHT22;40915;50.826;4.356;2023-03-05T00:14:01;6.20;99.90
25628;DHT22;40915;50.826;4.356;2023-03-05T00:16:28;6.30;99.90
25628;DHT22;40915;50.826;4.356;2023-03-05T00:18:56;6.20;99.90
25628;DHT22;40915;50.826;4.356;2023-03-05T00:21:34;6.30;99.90
25628;DHT22;40915;50.826;4.356;2023-03-05T00:24:02;6.20;99.90
25628;DHT22;40915;50.826;4.356;2023-03-05T00:26:29;6.20;99.90
25628;DHT22;40915;50.826;4.356;2023-03-05T00:28:56;6.20;99.90
25628;DHT22;40915;50.826;4.356;2023-03-05T00:31:25;6.20;99.90
25628;DHT22;40915;50.826;4.356;2023-03-05T00:33:53;6.20;99.90
25628;DHT22;40915;50.826;4.356;2023-03-05T00:36:19;6.10;99.90
25628;DHT22;40915;50.826;4.356;2023-03-05T00:38:44;6.10;99.90
25628;DHT22;40915;50.826;4.356;2023-03-05T00:41:10;6.10;99.90
25628;DHT22;40915;50.826;4.356;2023-03-05T00:43:35;6.00;99.90
25628;DHT22;40915;50.826;4.356;2023-03-05T00:46:01;6.00;99.90
25628;DHT22;40915;50.826;4.356;2023-03-05T00:48:27;5.90;99.90
25628;DHT22;40915;50.826;4.356;2023-03-05T00:50:53;5.90;99.90
25628;DHT22;40915;50.826;4.356;2023-03-05T00:53:19;5.90;99.90
25628;DHT22;40915;50.826;4.356;2023-03-05T00:55:45;5.80;99.90
25628;DHT22;40915;50.826;4.356;2023-03-05T00:58:10;5.80;99.90
25628;DHT22;40915;50.826;4.356;2023-03-05T01:00:36;5.80;99.90
25628;DHT22;40915;50.826;4.356;2023-03-05T01:03:02;5.80;99.90
25628;DHT22;40915;50.826;4.356;2023-03-05T01:05:27;5.80;99.90
25628;DHT22;40915;50.826;4.356;2023-03-05T01:07:54;5.80;99.90
25628;DHT22;40915;50.826;4.356;2023-03-05T01:10:20;5.80;99.90
25628;DHT22;40915;50.826;4.356;2023-03-05T01:12:48;5.70;99.90
25628;DHT22;40915;50.826;4.356;2023-03-05T01:15:14;5.70;99.90
25628;DHT22;40915;50.826;4.356;2023-03-05T01:17:40;5.70;99.90
25628;DHT22;40915;50.826;4.356;2023-03-05T01:20:07;5.60;99.90
25628;DHT22;40915;50.826;4.356;2023-03-05T01:22:33;5.60;99.90
25628;DHT22;40915;50.826;4.356;2023-03-05T01:25:00;5.60;99.90
25628;DHT22;40915;50.826;4.356;2023-03-05T01:27:25;5.60;99.90
25628;DHT22;40915;50.826;4.356;2023-03-05T01:29:51;5.60;99.90
25628;DHT22;40915;50.826;4.356;2023-03-05T01:32:17;5.60;99.90
25628;DHT22;40915;50.826;4.356;2023-03-05T01:34:42;5.60;99.90
25628;DHT22;40915;50.826;4.356;2023-03-05T01:37:08;5.60;99.90
25628;DHT22;40915;50.826;4.356;2023-03-05T01:39:34;5.60;99.90
25628;DHT22;40915;50.826;4.356;2023-03-05T01:42:01;5.60;99.90
25628;DHT22;40915;50.826;4.356;2023-03-05T01:44:28;5.60;99.90
25628;DHT22;40915;50.826;4.356;2023-03-05T01:46:54;5.60;99.90
25628;DHT22;40915;50.826;4.356;2023-03-05T01:49:23;5.60;99.90
25628;DHT22;40915;50.826;4.356;2023-03-05T01:54:42;5.60;99.90
25628;DHT22;40915;50.826;4.356;2023-03-05T01:57:31;5.60;99.90
25628;DHT22;40915;50.826;4.356;2023-03-05T02:00:05;5.60;99.90
25628;DHT22;40915;50.826;4.356;2023-03-05T02:02:35;5.60;99.90
25628;DHT22;40915;50.826;4.356;2023-03-05T02:05:07;5.60;99.90
25628;DHT22;40915;50.826;4.356;2023-03-05T02:07:35;5.70;99.90
25628;DHT22;40915;50.826;4.356;2023-03-05T02:10:17;5.60;99.90
25628;DHT22;40915;50.826;4.356;2023-03-05T02:12:43;5.60;99.90
25628;DHT22;40915;50.826;4.356;2023-03-05T02:15:09;5.60;99.90
25628;DHT22;40915;50.826;4.356;2023-03-05T02:17:36;5.60;99.90
25628;DHT22;40915;50.826;4.356;2023-03-05T02:20:12;5.60;99.90
25628;DHT22;40915;50.826;4.356;2023-03-05T02:22:40;5.60;99.90
25628;DHT22;40915;50.826;4.356;2023-03-05T02:25:13;5.60;99.90
25628;DHT22;40915;50.826;4.356;2023-03-05T02:27:43;5.60;99.90
25628;DHT22;40915;50.826;4.356;2023-03-05T02:30:12;5.50;99.90
25628;DHT22;40915;50.826;4.356;2023-03-05T02:32:38;5.60;99.90
25628;DHT22;40915;50.826;4.356;2023-03-05T02:35:04;5.60;99.90
25628;DHT22;40915;50.826;4.356;2023-03-05T02:37:29;5.50;99.90
25628;DHT22;40915;50.826;4.356;2023-03-05T02:39:55;5.50;99.90
25628;DHT22;40915;50.826;4.356;2023-03-05T02:42:20;5.50;99.90
25628;DHT22;40915;50.826;4.356;2023-03-05T02:44:46;5.50;99.90
25628;DHT22;40915;50.826;4.356;2023-03-05T02:47:11;5.50;99.90
25628;DHT22;40915;50.826;4.356;2023-03-05T02:49:37;5.50;99.90
25628;DHT22;40915;50.826;4.356;2023-03-05T02:52:03;5.50;99.90
25628;DHT22;40915;50.826;4.356;2023-03-05T02:54:29;5.50;99.90
25628;DHT22;40915;50.826;4.356;2023-03-05T02:56:54;5.40;99.90
25628;DHT22;40915;50.826;4.356;2023-03-05T02:59:20;5.40;99.90
25628;DHT22;40915;50.826;4.356;2023-03-05T03:01:45;5.40;99.90
25628;DHT22;40915;50.826;4.356;2023-03-05T03:04:11;5.40;99.90
25628;DHT22;40915;50.826;4.356;2023-03-05T03:06:36;5.40;99.90
25628;DHT22;40915;50.826;4.356;2023-03-05T03:09:02;5.50;99.90
25628;DHT22;40915;50.826;4.356;2023-03-05T03:11:28;5.40;99.90
25628;DHT22;40915;50.826;4.356;2023-03-05T03:13:53;5.40;99.90
25628;DHT22;40915;50.826;4.356;2023-03-05T03:16:19;5.50;99.90
25628;DHT22;40915;50.826;4.356;2023-03-05T03:18:45;5.50;99.90
25628;DHT22;40915;50.826;4.356;2023-03-05T03:21:21;5.50;99.90
25628;DHT22;40915;50.826;4.356;2023-03-05T03:23:48;5.50;99.90
25628;DHT22;40915;50.826;4.356;2023-03-05T03:26:13;5.50;99.90
25628;DHT22;40915;50.826;4.356;2023-03-05T03:28:39;5.40;99.90
25628;DHT22;40915;50.826;4.356;2023-03-05T03:31:04;5.50;99.90
25628;DHT22;40915;50.826;4.356;2023-03-05T03:33:30;5.50;99.90
25628;DHT22;40915;50.826;4.356;2023-03-05T03:35:56;5.50;99.90
25628;DHT22;40915;50.826;4.356;2023-03-05T03:38:21;5.50;99.90
25628;DHT22;40915;50.826;4.356;2023-03-05T03:40:47;5.50;99.90
25628;DHT22;40915;50.826;4.356;2023-03-05T03:43:12;5.40;99.90
25628;DHT22;40915;50.826;4.356;2023-03-05T03:45:42;5.50;99.90
25628;DHT22;40915;50.826;4.356;2023-03-05T03:48:09;5.50;99.90
25628;DHT22;40915;50.826;4.356;2023-03-05T03:50:41;5.40;99.90
25628;DHT22;40915;50.826;4.356;2023-03-05T03:53:08;5.30;99.90
25628;DHT22;40915;50.826;4.356;2023-03-05T03:55:34;5.30;99.90
25628;DHT22;40915;50.826;4.356;2023-03-05T03:58:00;5.30;99.90
25628;DHT22;40915;50.826;4.356;2023-03-05T04:00:25;5.30;99.90
25628;DHT22;40915;50.826;4.356;2023-03-05T04:02:51;5.30;99.90
25628;DHT22;40915;50.826;4.356;2023-03-05T04:05:17;5.30;99.90
25628;DHT22;40915;50.826;4.356;2023-03-05T04:07:42;5.30;99.90
25628;DHT22;40915;50.826;4.356;2023-03-05T04:10:10;5.30;99.90
25628;DHT22;40915;50.826;4.356;2023-03-05T04:12:36;5.30;99.90
25628;DHT22;40915;50.826;4.356;2023-03-05T04:15:02;5.30;99.90
25628;DHT22;40915;50.826;4.356;2023-03-05T04:17:28;5.30;99.90
25628;DHT22;40915;50.826;4.356;2023-03-05T04:19:53;5.30;99.90
25628;DHT22;40915;50.826;4.356;2023-03-05T04:22:19;5.30;99.90
25628;DHT22;40915;50.826;4.356;2023-03-05T04:24:44;5.30;99.90
25628;DHT22;40915;50.826;4.356;2023-03-05T04:27:10;5.30;99.90
25628;DHT22;40915;50.826;4.356;2023-03-05T04:29:36;5.30;99.90
25628;DHT22;40915;50.826;4.356;2023-03-05T04:32:05;5.30;99.90
25628;DHT22;40915;50.826;4.356;2023-03-05T04:34:30;5.30;99.90
25628;DHT22;40915;50.826;4.356;2023-03-05T04:36:57;5.30;99.90
25628;DHT22;40915;50.826;4.356;2023-03-05T04:39:22;5.20;99.90
25628;DHT22;40915;50.826;4.356;2023-03-05T04:41:48;5.20;99.90
25628;DHT22;40915;50.826;4.356;2023-03-05T04:44:14;5.30;99.90
25628;DHT22;40915;50.826;4.356;2023-03-05T04:46:40;5.30;99.90
25628;DHT22;40915;50.826;4.356;2023-03-05T04:49:05;5.20;99.90
25628;DHT22;40915;50.826;4.356;2023-03-05T04:51:31;5.30;99.90
25628;DHT22;40915;50.826;4.356;2023-03-05T04:53:57;5.30;99.90
25628;DHT22;40915;50.826;4.356;2023-03-05T04:56:22;5.20;99.90
25628;DHT22;40915;50.826;4.356;2023-03-05T04:58:48;5.20;99.90
25628;DHT22;40915;50.826;4.356;2023-03-05T05:01:13;5.20;99.90
25628;DHT22;40915;50.826;4.356;2023-03-05T05:03:39;5.20;99.90
25628;DHT22;40915;50.826;4.356;2023-03-05T05:06:05;5.20;99.90
25628;DHT22;40915;50.826;4.356;2023-03-05T05:08:30;5.20;99.90
25628;DHT22;40915;50.826;4.356;2023-03-05T05:11:03;5.30;99.90
25628;DHT22;40915;50.826;4.356;2023-03-05T05:13:29;5.30;99.90
25628;DHT22;40915;50.826;4.356;2023-03-05T05:15:55;5.30;99.90
25628;DHT22;40915;50.826;4.356;2023-03-05T05:18:21;5.30;99.90
25628;DHT22;40915;50.826;4.356;2023-03-05T05:20:47;5.30;99.90
25628;DHT22;40915;50.826;4.356;2023-03-05T05:23:13;5.30;99.90
25628;DHT22;40915;50.826;4.356;2023-03-05T05:25:39;5.20;99.90
25628;DHT22;40915;50.826;4.356;2023-03-05T05:28:04;5.20;99.90
25628;DHT22;40915;50.826;4.356;2023-03-05T05:30:30;5.20;99.90
25628;DHT22;40915;50.826;4.356;2023-03-05T05:32:56;5.20;99.90
25628;DHT22;40915;50.826;4.356;2023-03-05T05:35:22;5.20;99.90
25628;DHT22;40915;50.826;4.356;2023-03-05T05:37:47;5.20;99.90
25628;DHT22;40915;50.826;4.356;2023-03-05T05:40:14;5.10;99.90
25628;DHT22;40915;50.826;4.356;2023-03-05T05:42:40;5.10;99.90
25628;DHT22;40915;50.826;4.356;2023-03-05T05:45:06;5.10;99.90
25628;DHT22;40915;50.826;4.356;2023-03-05T05:47:32;5.10;99.90
25628;DHT22;40915;50.826;4.356;2023-03-05T05:49:57;5.10;99.90
25628;DHT22;40915;50.826;4.356;2023-03-05T05:52:23;5.10;99.90
25628;DHT22;40915;50.826;4.356;2023-03-05T05:54:48;5.10;99.90
25628;DHT22;40915;50.826;4.356;2023-03-05T05:57:14;5.00;99.90
25628;DHT22;40915;50.826;4.356;2023-03-05T05:59:40;5.10;99.90
25628;DHT22;40915;50.826;4.356;2023-03-05T06:02:06;5.10;99.90
25628;DHT22;40915;50.826;4.356;2023-03-05T06:04:35;5.10;99.90
25628;DHT22;40915;50.826;4.356;2023-03-05T06:07:01;5.10;99.90
25628;DHT22;40915;50.826;4.356;2023-03-05T06:09:27;5.10;99.90
25628;DHT22;40915;50.826;4.356;2023-03-05T06:11:53;5.10;99.90
25628;DHT22;40915;50.826;4.356;2023-03-05T06:14:19;5.00;99.90
25628;DHT22;40915;50.826;4.356;2023-03-05T06:16:44;5.00;99.90
25628;DHT22;40915;50.826;4.356;2023-03-05T06:19:13;5.00;99.90
25628;DHT22;40915;50.826;4.356;2023-03-05T06:21:40;5.00;99.90
25628;DHT22;40915;50.826;4.356;2023-03-05T06:24:06;5.00;99.90
25628;DHT22;40915;50.826;4.356;2023-03-05T06:26:31;5.00;99.90
25628;DHT22;40915;50.826;4.356;2023-03-05T06:28:57;5.00;99.90
25628;DHT22;40915;50.826;4.356;2023-03-05T06:31:26;5.00;99.90
25628;DHT22;40915;50.826;4.356;2023-03-05T06:33:58;5.00;99.90
25628;DHT22;40915;50.826;4.356;2023-03-05T06:36:27;5.10;99.90
25628;DHT22;40915;50.826;4.356;2023-03-05T06:38:53;5.00;99.90
25628;DHT22;40915;50.826;4.356;2023-03-05T06:41:22;5.00;99.90
25628;DHT22;40915;50.826;4.356;2023-03-05T06:43:48;5.00;99.90
25628;DHT22;40915;50.826;4.356;2023-03-05T06:48:41;5.00;99.90
25628;DHT22;40915;50.826;4.356;2023-03-05T06:51:15;5.00;99.90
25628;DHT22;40915;50.826;4.356;2023-03-05T06:53:42;5.10;99.90
25628;DHT22;40915;50.826;4.356;2023-03-05T06:56:09;5.00;99.90
25628;DHT22;40915;50.826;4.356;2023-03-05T06:58:34;5.00;99.90
25628;DHT22;40915;50.826;4.356;2023-03-05T07:01:00;5.00;99.90
25628;DHT22;40915;50.826;4.356;2023-03-05T07:03:25;5.00;99.90
25628;DHT22;40915;50.826;4.356;2023-03-05T07:05:51;5.00;99.90
25628;DHT22;40915;50.826;4.356;2023-03-05T07:08:17;5.00;99.90
25628;DHT22;40915;50.826;4.356;2023-03-05T07:10:43;5.00;99.90
25628;DHT22;40915;50.826;4.356;2023-03-05T07:13:09;4.90;99.90
25628;DHT22;40915;50.826;4.356;2023-03-05T07:15:37;5.00;99.90
25628;DHT22;40915;50.826;4.356;2023-03-05T07:18:04;5.00;99.90
25628;DHT22;40915;50.826;4.356;2023-03-05T07:20:30;5.10;99.90
25628;DHT22;40915;50.826;4.356;2023-03-05T07:22:55;5.10;99.90
25628;DHT22;40915;50.826;4.356;2023-03-05T07:25:21;5.10;99.90
25628;DHT22;40915;50.826;4.356;2023-03-05T07:27:48;5.10;99.90
25628;DHT22;40915;50.826;4.356;2023-03-05T07:30:14;5.10;99.90
25628;DHT22;40915;50.826;4.356;2023-03-05T07:32:40;5.10;99.90
25628;DHT22;40915;50.826;4.356;2023-03-05T07:35:07;5.20;99.90
25628;DHT22;40915;50.826;4.356;2023-03-05T07:37:33;5.20;99.90
25628;DHT22;40915;50.826;4.356;2023-03-05T07:39:59;5.20;99.90
25628;DHT22;40915;50.826;4.356;2023-03-05T07:42:24;5.20;99.90
25628;DHT22;40915;50.826;4.356;2023-03-05T07:44:50;5.20;99.90
25628;DHT22;40915;50.826;4.356;2023-03-05T07:47:15;5.20;99.90
25628;DHT22;40915;50.826;4.356;2023-03-05T07:49:41;5.30;99.90
25628;DHT22;40915;50.826;4.356;2023-03-05T07:52:08;5.40;99.90
25628;DHT22;40915;50.826;4.356;2023-03-05T07:54:34;5.40;99.90
25628;DHT22;40915;50.826;4.356;2023-03-05T07:57:03;5.40;99.90
25628;DHT22;40915;50.826;4.356;2023-03-05T07:59:29;5.50;99.90
25628;DHT22;40915;50.826;4.356;2023-03-05T08:01:55;5.50;99.90
25628;DHT22;40915;50.826;4.356;2023-03-05T08:04:21;5.60;99.90
25628;DHT22;40915;50.826;4.356;2023-03-05T08:06:46;5.70;99.90
25628;DHT22;40915;50.826;4.356;2023-03-05T08:09:14;5.70;99.90
25628;DHT22;40915;50.826;4.356;2023-03-05T08:11:40;5.70;99.90
25628;DHT22;40915;50.826;4.356;2023-03-05T08:14:06;5.70;99.90
25628;DHT22;40915;50.826;4.356;2023-03-05T08:16:32;5.80;99.90
25628;DHT22;40915;50.826;4.356;2023-03-05T08:18:58;5.80;99.90
25628;DHT22;40915;50.826;4.356;2023-03-05T08:21:33;5.90;99.90
25628;DHT22;40915;50.826;4.356;2023-03-05T08:23:59;5.90;99.90
25628;DHT22;40915;50.826;4.356;2023-03-05T08:26:27;5.90;99.90
25628;DHT22;40915;50.826;4.356;2023-03-05T08:28:53;6.00;99.90
25628;DHT22;40915;50.826;4.356;2023-03-05T08:31:21;6.10;99.90
25628;DHT22;40915;50.826;4.356;2023-03-05T08:33:52;6.00;99.90
25628;DHT22;40915;50.826;4.356;2023-03-05T08:36:21;6.00;99.90
25628;DHT22;40915;50.826;4.356;2023-03-05T08:38:47;6.00;99.90
25628;DHT22;40915;50.826;4.356;2023-03-05T08:41:14;6.00;99.90
25628;DHT22;40915;50.826;4.356;2023-03-05T08:43:40;6.00;99.90
25628;DHT22;40915;50.826;4.356;2023-03-05T08:46:06;6.00;99.90
25628;DHT22;40915;50.826;4.356;2023-03-05T08:48:33;6.10;99.90
25628;DHT22;40915;50.826;4.356;2023-03-05T08:51:11;6.10;99.90
25628;DHT22;40915;50.826;4.356;2023-03-05T08:53:37;6.20;99.90
25628;DHT22;40915;50.826;4.356;2023-03-05T08:56:03;6.20;99.90
25628;DHT22;40915;50.826;4.356;2023-03-05T08:58:29;6.30;99.90
25628;DHT22;40915;50.826;4.356;2023-03-05T09:00:55;6.40;99.90
25628;DHT22;40915;50.826;4.356;2023-03-05T09:03:21;6.30;99.90
25628;DHT22;40915;50.826;4.356;2023-03-05T09:05:50;6.30;99.90
25628;DHT22;40915;50.826;4.356;2023-03-05T09:08:16;6.20;99.90
25628;DHT22;40915;50.826;4.356;2023-03-05T09:10:42;6.20;99.90
25628;DHT22;40915;50.826;4.356;2023-03-05T09:13:09;6.20;99.90
25628;DHT22;40915;50.826;4.356;2023-03-05T09:15:34;6.20;99.90
25628;DHT22;40915;50.826;4.356;2023-03-05T09:18:00;6.30;99.90
25628;DHT22;40915;50.826;4.356;2023-03-05T09:20:27;6.20;99.90
25628;DHT22;40915;50.826;4.356;2023-03-05T09:22:52;6.20;99.90
25628;DHT22;40915;50.826;4.356;2023-03-05T09:25:18;6.20;99.90
25628;DHT22;40915;50.826;4.356;2023-03-05T09:27:43;6.20;99.90
25628;DHT22;40915;50.826;4.356;2023-03-05T09:30:11;6.30;99.90
25628;DHT22;40915;50.826;4.356;2023-03-05T09:32:37;6.20;99.90
25628;DHT22;40915;50.826;4.356;2023-03-05T09:35:03;6.20;99.90
25628;DHT22;40915;50.826;4.356;2023-03-05T09:37:29;6.20;99.90
25628;DHT22;40915;50.826;4.356;2023-03-05T09:39:55;6.20;99.90
25628;DHT22;40915;50.826;4.356;2023-03-05T09:45:41;6.20;99.90
25628;DHT22;40915;50.826;4.356;2023-03-05T09:48:18;6.20;99.90
25628;DHT22;40915;50.826;4.356;2023-03-05T09:51:04;6.10;99.90
25628;DHT22;40915;50.826;4.356;2023-03-05T09:56:31;6.00;99.90
25628;DHT22;40915;50.826;4.356;2023-03-05T09:59:21;5.80;99.90
25628;DHT22;40915;50.826;4.356;2023-03-05T10:01:51;5.60;99.90
25628;DHT22;40915;50.826;4.356;2023-03-05T10:04:22;5.50;99.90
25628;DHT22;40915;50.826;4.356;2023-03-05T10:07:03;5.40;99.90
25628;DHT22;40915;50.826;4.356;2023-03-05T10:12:37;5.30;99.90
25628;DHT22;40915;50.826;4.356;2023-03-05T10:15:13;5.40;99.90
25628;DHT22;40915;50.826;4.356;2023-03-05T10:18:08;5.50;99.90
25628;DHT22;40915;50.826;4.356;2023-03-05T10:24:10;5.50;99.90
25628;DHT22;40915;50.826;4.356;2023-03-05T10:32:05;5.50;99.90
25628;DHT22;40915;50.826;4.356;2023-03-05T10:35:00;5.30;99.90
25628;DHT22;40915;50.826;4.356;2023-03-05T10:40:45;5.40;99.90
25628;DHT22;40915;50.826;4.356;2023-03-05T10:43:34;5.30;99.90
25628;DHT22;40915;50.826;4.356;2023-03-05T10:46:02;5.30;99.90
25628;DHT22;40915;50.826;4.356;2023-03-05T10:48:33;5.30;99.90
25628;DHT22;40915;50.826;4.356;2023-03-05T10:51:18;5.50;99.90
25628;DHT22;40915;50.826;4.356;2023-03-05T10:54:09;5.60;99.90
25628;DHT22;40915;50.826;4.356;2023-03-05T10:56:36;5.70;99.90
25628;DHT22;40915;50.826;4.356;2023-03-05T10:59:02;5.80;99.90
25628;DHT22;40915;50.826;4.356;2023-03-05T11:01:28;5.90;99.90
25628;DHT22;40915;50.826;4.356;2023-03-05T11:04:08;6.00;99.90
25628;DHT22;40915;50.826;4.356;2023-03-05T11:06:44;6.00;99.90
25628;DHT22;40915;50.826;4.356;2023-03-05T11:09:23;6.10;99.90
25628;DHT22;40915;50.826;4.356;2023-03-05T11:14:44;6.30;99.90
25628;DHT22;40915;50.826;4.356;2023-03-05T11:17:33;6.40;99.90
25628;DHT22;40915;50.826;4.356;2023-03-05T11:23:19;6.50;99.90
25628;DHT22;40915;50.826;4.356;2023-03-05T11:28:38;6.70;99.90
25628;DHT22;40915;50.826;4.356;2023-03-05T11:31:18;6.70;99.90
25628;DHT22;40915;50.826;4.356;2023-03-05T11:36:31;7.00;99.90
25628;DHT22;40915;50.826;4.356;2023-03-05T11:41:37;7.20;99.90
25628;DHT22;40915;50.826;4.356;2023-03-05T11:44:21;7.10;99.90
25628;DHT22;40915;50.826;4.356;2023-03-05T11:59:39;7.70;99.90
25628;DHT22;40915;50.826;4.356;2023-03-05T12:02:18;7.70;99.90
25628;DHT22;40915;50.826;4.356;2023-03-05T12:04:45;7.70;99.90
25628;DHT22;40915;50.826;4.356;2023-03-05T12:07:16;7.60;99.90
25628;DHT22;40915;50.826;4.356;2023-03-05T12:09:51;7.70;99.90
25628;DHT22;40915;50.826;4.356;2023-03-05T12:12:52;7.70;99.90
25628;DHT22;40915;50.826;4.356;2023-03-05T12:16:01;7.70;99.90
25628;DHT22;40915;50.826;4.356;2023-03-05T12:24:01;7.50;99.90
25628;DHT22;40915;50.826;4.356;2023-03-05T12:34:59;7.90;99.90
25628;DHT22;40915;50.826;4.356;2023-03-05T13:06:04;6.90;99.90
25628;DHT22;40915;50.826;4.356;2023-03-05T13:08:33;6.90;99.90
25628;DHT22;40915;50.826;4.356;2023-03-05T13:11:07;7.00;99.90
25628;DHT22;40915;50.826;4.356;2023-03-05T13:13:40;6.90;99.90
25628;DHT22;40915;50.826;4.356;2023-03-05T13:16:16;7.10;99.90
25628;DHT22;40915;50.826;4.356;2023-03-05T13:18:46;6.90;99.90
25628;DHT22;40915;50.826;4.356;2023-03-05T13:21:14;6.90;99.90
25628;DHT22;40915;50.826;4.356;2023-03-05T13:23:49;6.90;99.90
25628;DHT22;40915;50.826;4.356;2023-03-05T13:26:26;6.90;99.90
25628;DHT22;40915;50.826;4.356;2023-03-05T13:29:12;6.70;99.90
25628;DHT22;40915;50.826;4.356;2023-03-05T13:31:50;6.80;99.90
25628;DHT22;40915;50.826;4.356;2023-03-05T13:34:31;6.90;99.90
25628;DHT22;40915;50.826;4.356;2023-03-05T13:37:06;7.00;99.90
25628;DHT22;40915;50.826;4.356;2023-03-05T13:39:49;7.00;99.90
25628;DHT22;40915;50.826;4.356;2023-03-05T13:42:18;7.30;99.90
25628;DHT22;40915;50.826;4.356;2023-03-05T13:44:53;7.30;99.90
25628;DHT22;40915;50.826;4.356;2023-03-05T13:47:21;7.30;99.90
25628;DHT22;40915;50.826;4.356;2023-03-05T13:49:55;7.20;99.90
25628;DHT22;40915;50.826;4.356;2023-03-05T13:52:27;7.20;99.90
25628;DHT22;40915;50.826;4.356;2023-03-05T13:54:54;7.10;99.90
25628;DHT22;40915;50.826;4.356;2023-03-05T14:00:02;7.00;99.90
25628;DHT22;40915;50.826;4.356;2023-03-05T14:02:28;6.90;99.90
25628;DHT22;40915;50.826;4.356;2023-03-05T14:04:54;6.80;99.90
25628;DHT22;40915;50.826;4.356;2023-03-05T14:07:38;6.90;99.90
25628;DHT22;40915;50.826;4.356;2023-03-05T14:10:27;6.80;99.90
25628;DHT22;40915;50.826;4.356;2023-03-05T14:12:54;6.80;99.90
25628;DHT22;40915;50.826;4.356;2023-03-05T14:15:24;6.70;99.90
25628;DHT22;40915;50.826;4.356;2023-03-05T14:17:51;6.70;99.90
25628;DHT22;40915;50.826;4.356;2023-03-05T14:20:27;6.70;99.90
25628;DHT22;40915;50.826;4.356;2023-03-05T14:22:56;6.90;99.90
25628;DHT22;40915;50.826;4.356;2023-03-05T14:25:39;6.60;99.90
25628;DHT22;40915;50.826;4.356;2023-03-05T14:28:26;6.60;99.90
25628;DHT22;40915;50.826;4.356;2023-03-05T14:30:53;6.60;99.90
25628;DHT22;40915;50.826;4.356;2023-03-05T14:33:27;6.50;99.90
25628;DHT22;40915;50.826;4.356;2023-03-05T14:35:54;6.50;99.90
25628;DHT22;40915;50.826;4.356;2023-03-05T14:38:24;6.40;99.90
25628;DHT22;40915;50.826;4.356;2023-03-05T14:40:51;6.40;99.90
25628;DHT22;40915;50.826;4.356;2023-03-05T14:43:17;6.40;99.90
25628;DHT22;40915;50.826;4.356;2023-03-05T14:45:43;6.40;99.90
25628;DHT22;40915;50.826;4.356;2023-03-05T14:48:11;6.40;99.90
25628;DHT22;40915;50.826;4.356;2023-03-05T14:50:44;6.40;99.90
25628;DHT22;40915;50.826;4.356;2023-03-05T14:53:19;6.40;99.90
25628;DHT22;40915;50.826;4.356;2023-03-05T14:55:52;6.40;99.90
25628;DHT22;40915;50.826;4.356;2023-03-05T14:58:31;6.50;99.90
25628;DHT22;40915;50.826;4.356;2023-03-05T15:00:59;6.50;99.90
25628;DHT22;40915;50.826;4.356;2023-03-05T15:03:25;6.30;99.90
25628;DHT22;40915;50.826;4.356;2023-03-05T15:05:54;6.30;99.90
25628;DHT22;40915;50.826;4.356;2023-03-05T15:08:26;6.40;99.90
25628;DHT22;40915;50.826;4.356;2023-03-05T15:10:52;6.30;99.90
25628;DHT22;40915;50.826;4.356;2023-03-05T15:13:18;6.60;99.90
25628;DHT22;40915;50.826;4.356;2023-03-05T15:15:46;6.60;99.90
25628;DHT22;40915;50.826;4.356;2023-03-05T15:18:13;6.60;99.90
25628;DHT22;40915;50.826;4.356;2023-03-05T15:20:39;6.70;99.90
25628;DHT22;40915;50.826;4.356;2023-03-05T15:23:05;6.70;99.90
25628;DHT22;40915;50.826;4.356;2023-03-05T15:25:31;6.70;99.90
25628;DHT22;40915;50.826;4.356;2023-03-05T15:27:57;6.60;99.90
25628;DHT22;40915;50.826;4.356;2023-03-05T15:30:29;6.60;99.90
25628;DHT22;40915;50.826;4.356;2023-03-05T15:32:57;6.60;99.90
25628;DHT22;40915;50.826;4.356;2023-03-05T15:35:24;6.60;99.90
25628;DHT22;40915;50.826;4.356;2023-03-05T15:37:50;6.50;99.90
25628;DHT22;40915;50.826;4.356;2023-03-05T15:40:16;6.40;99.90
25628;DHT22;40915;50.826;4.356;2023-03-05T15:42:42;6.40;99.90
25628;DHT22;40915;50.826;4.356;2023-03-05T15:45:08;6.40;99.90
25628;DHT22;40915;50.826;4.356;2023-03-05T15:47:34;6.30;99.90
25628;DHT22;40915;50.826;4.356;2023-03-05T15:50:17;6.40;99.90
25628;DHT22;40915;50.826;4.356;2023-03-05T15:52:45;6.30;99.90
25628;DHT22;40915;50.826;4.356;2023-03-05T15:55:13;6.30;99.90
25628;DHT22;40915;50.826;4.356;2023-03-05T15:57:43;6.30;99.90
25628;DHT22;40915;50.826;4.356;2023-03-05T16:00:09;6.30;99.90
25628;DHT22;40915;50.826;4.356;2023-03-05T16:02:35;6.30;99.90
25628;DHT22;40915;50.826;4.356;2023-03-05T16:05:01;6.30;99.90
25628;DHT22;40915;50.826;4.356;2023-03-05T16:07:27;6.30;99.90
25628;DHT22;40915;50.826;4.356;2023-03-05T16:09:54;6.30;99.90
25628;DHT22;40915;50.826;4.356;2023-03-05T16:12:24;6.20;99.90
25628;DHT22;40915;50.826;4.356;2023-03-05T16:14:51;6.20;99.90
25628;DHT22;40915;50.826;4.356;2023-03-05T16:17:18;6.20;99.90
25628;DHT22;40915;50.826;4.356;2023-03-05T16:19:49;6.20;99.90
25628;DHT22;40915;50.826;4.356;2023-03-05T16:22:16;6.10;99.90
25628;DHT22;40915;50.826;4.356;2023-03-05T16:24:41;6.10;99.90
25628;DHT22;40915;50.826;4.356;2023-03-05T16:27:07;6.00;99.90
25628;DHT22;40915;50.826;4.356;2023-03-05T16:29:32;6.00;99.90
25628;DHT22;40915;50.826;4.356;2023-03-05T16:32:01;5.70;99.90
25628;DHT22;40915;50.826;4.356;2023-03-05T16:34:28;5.70;99.90
25628;DHT22;40915;50.826;4.356;2023-03-05T16:36:54;5.70;99.90
25628;DHT22;40915;50.826;4.356;2023-03-05T16:39:20;5.60;99.90
25628;DHT22;40915;50.826;4.356;2023-03-05T16:41:46;5.60;99.90
25628;DHT22;40915;50.826;4.356;2023-03-05T16:44:12;5.70;99.90
25628;DHT22;40915;50.826;4.356;2023-03-05T16:46:38;5.70;99.90
25628;DHT22;40915;50.826;4.356;2023-03-05T16:49:05;5.70;99.90
25628;DHT22;40915;50.826;4.356;2023-03-05T16:51:32;5.70;99.90
25628;DHT22;40915;50.826;4.356;2023-03-05T16:53:58;5.70;99.90
25628;DHT22;40915;50.826;4.356;2023-03-05T16:56:25;5.70;99.90
25628;DHT22;40915;50.826;4.356;2023-03-05T16:58:51;5.70;99.90
25628;DHT22;40915;50.826;4.356;2023-03-05T17:01:19;5.70;99.90
25628;DHT22;40915;50.826;4.356;2023-03-05T17:03:46;5.80;99.90
25628;DHT22;40915;50.826;4.356;2023-03-05T17:06:17;5.80;99.90
25628;DHT22;40915;50.826;4.356;2023-03-05T17:08:43;5.80;99.90
25628;DHT22;40915;50.826;4.356;2023-03-05T17:11:11;5.70;99.90
25628;DHT22;40915;50.826;4.356;2023-03-05T17:13:37;5.60;99.90
25628;DHT22;40915;50.826;4.356;2023-03-05T17:16:04;5.70;99.90
25628;DHT22;40915;50.826;4.356;2023-03-05T17:18:30;5.60;99.90
25628;DHT22;40915;50.826;4.356;2023-03-05T17:20:56;5.60;99.90
25628;DHT22;40915;50.826;4.356;2023-03-05T17:23:22;5.60;99.90
25628;DHT22;40915;50.826;4.356;2023-03-05T17:25:47;5.60;99.90
25628;DHT22;40915;50.826;4.356;2023-03-05T17:28:13;5.70;99.90
25628;DHT22;40915;50.826;4.356;2023-03-05T17:30:39;5.70;99.90
25628;DHT22;40915;50.826;4.356;2023-03-05T17:33:06;5.70;99.90